sensor_id;sensor_type;location;lat;lon;timestamp;P1;durP1;ratioP1;P2;durP2;ratioP2
21665;SDS011;10994;45.486;9.190;2022-09-01T00:02:22;8.13;;;7.35;;
21665;SDS011;10994;45.486;9.190;2022-09-01T00:04:51;7.38;;;6.60;;
21665;SDS011;10994;45.486;9.190;2022-09-01T00:07:21;6.93;;;6.32;;
21665;SDS011;10994;45.486;9.190;2022-09-01T00:09:47;6.55;;;5.95;;
21665;SDS011;10994;45.486;9.190;2022-09-01T00:12:12;6.63;;;5.95;;
21665;SDS011;10994;45.486;9.190;2022-09-01T00:14:39;6.95;;;6.07;;
21665;SDS011;10994;45.486;9.190;2022-09-01T00:17:08;6.50;;;5.90;;
21665;SDS011;10994;45.486;9.190;2022-09-01T00:19:34;6.35;;;5.75;;
21665;SDS011;10994;45.486;9.190;2022-09-01T00:22:00;6.82;;;6.20;;
21665;SDS011;10994;45.486;9.190;2022-09-01T00:24:27;6.20;;;5.63;;
21665;SDS011;10994;45.486;9.190;2022-09-01T00:26:54;6.50;;;5.90;;
21665;SDS011;10994;45.486;9.190;2022-09-01T00:29:21;7.50;;;5.45;;
21665;SDS011;10994;45.486;9.190;2022-09-01T00:31:46;6.30;;;5.70;;
21665;SDS011;10994;45.486;9.190;2022-09-01T00:34:13;7.15;;;6.47;;
21665;SDS011;10994;45.486;9.190;2022-09-01T00:36:38;6.72;;;6.18;;
21665;SDS011;10994;45.486;9.190;2022-09-01T00:39:04;7.35;;;6.63;;
21665;SDS011;10994;45.486;9.190;2022-09-01T00:41:32;7.25;;;6.40;;
21665;SDS011;10994;45.486;9.190;2022-09-01T00:44:00;6.55;;;5.95;;
21665;SDS011;10994;45.486;9.190;2022-09-01T00:46:31;6.65;;;5.88;;
21665;SDS011;10994;45.486;9.190;2022-09-01T00:51:54;6.53;;;5.97;;
21665;SDS011;10994;45.486;9.190;2022-09-01T00:54:26;6.75;;;6.15;;
21665;SDS011;10994;45.486;9.190;2022-09-01T00:56:54;6.35;;;5.75;;
21665;SDS011;10994;45.486;9.190;2022-09-01T00:59:21;6.40;;;5.80;;
21665;SDS011;10994;45.486;9.190;2022-09-01T01:01:48;7.20;;;6.50;;
21665;SDS011;10994;45.486;9.190;2022-09-01T01:04:14;7.53;;;6.82;;
21665;SDS011;10994;45.486;9.190;2022-09-01T01:06:43;6.40;;;5.82;;
21665;SDS011;10994;45.486;9.190;2022-09-01T01:09:26;6.85;;;6.13;;
21665;SDS011;10994;45.486;9.190;2022-09-01T01:11:54;5.88;;;5.20;;
21665;SDS011;10994;45.486;9.190;2022-09-01T01:14:23;6.57;;;5.90;;
21665;SDS011;10994;45.486;9.190;2022-09-01T01:16:55;6.63;;;6.00;;
21665;SDS011;10994;45.486;9.190;2022-09-01T01:22:27;4.95;;;4.55;;
21665;SDS011;10994;45.486;9.190;2022-09-01T01:25:32;5.18;;;4.60;;
21665;SDS011;10994;45.486;9.190;2022-09-01T01:31:16;5.22;;;4.43;;
21665;SDS011;10994;45.486;9.190;2022-09-01T01:36:14;4.20;;;3.85;;
21665;SDS011;10994;45.486;9.190;2022-09-01T01:38:44;4.32;;;3.92;;
21665;SDS011;10994;45.486;9.190;2022-09-01T01:41:12;4.70;;;4.22;;
21665;SDS011;10994;45.486;9.190;2022-09-01T01:43:39;4.50;;;4.10;;
21665;SDS011;10994;45.486;9.190;2022-09-01T01:46:06;6.68;;;4.38;;
21665;SDS011;10994;45.486;9.190;2022-09-01T01:48:37;4.78;;;3.33;;
21665;SDS011;10994;45.486;9.190;2022-09-01T01:51:06;4.65;;;3.80;;
21665;SDS011;10994;45.486;9.190;2022-09-01T01:53:33;4.10;;;3.70;;
21665;SDS011;10994;45.486;9.190;2022-09-01T01:56:01;4.05;;;3.65;;
21665;SDS011;10994;45.486;9.190;2022-09-01T01:58:31;4.13;;;3.70;;
21665;SDS011;10994;45.486;9.190;2022-09-01T02:01:02;4.10;;;3.70;;
21665;SDS011;10994;45.486;9.190;2022-09-01T02:03:30;3.80;;;3.33;;
21665;SDS011;10994;45.486;9.190;2022-09-01T02:06:03;4.97;;;3.70;;
21665;SDS011;10994;45.486;9.190;2022-09-01T02:08:35;4.38;;;3.95;;
21665;SDS011;10994;45.486;9.190;2022-09-01T02:11:02;3.72;;;3.42;;
21665;SDS011;10994;45.486;9.190;2022-09-01T02:13:30;4.10;;;3.53;;
21665;SDS011;10994;45.486;9.190;2022-09-01T02:16:00;3.67;;;3.38;;
21665;SDS011;10994;45.486;9.190;2022-09-01T02:18:32;3.92;;;3.53;;
21665;SDS011;10994;45.486;9.190;2022-09-01T02:21:05;5.22;;;3.42;;
21665;SDS011;10994;45.486;9.190;2022-09-01T02:23:34;3.58;;;3.28;;
21665;SDS011;10994;45.486;9.190;2022-09-01T02:26:00;3.92;;;3.53;;
21665;SDS011;10994;45.486;9.190;2022-09-01T02:28:27;3.15;;;2.95;;
21665;SDS011;10994;45.486;9.190;2022-09-01T02:30:56;3.42;;;3.13;;
21665;SDS011;10994;45.486;9.190;2022-09-01T02:33:24;3.30;;;3.00;;
21665;SDS011;10994;45.486;9.190;2022-09-01T02:35:53;3.30;;;3.05;;
21665;SDS011;10994;45.486;9.190;2022-09-01T02:38:21;4.55;;;3.15;;
21665;SDS011;10994;45.486;9.190;2022-09-01T02:40:53;3.25;;;2.85;;
21665;SDS011;10994;45.486;9.190;2022-09-01T02:43:20;3.20;;;2.60;;
21665;SDS011;10994;45.486;9.190;2022-09-01T02:45:48;3.75;;;2.90;;
21665;SDS011;10994;45.486;9.190;2022-09-01T02:48:20;2.90;;;2.70;;
21665;SDS011;10994;45.486;9.190;2022-09-01T02:51:08;3.30;;;3.00;;
21665;SDS011;10994;45.486;9.190;2022-09-01T02:53:39;4.55;;;3.15;;
21665;SDS011;10994;45.486;9.190;2022-09-01T02:56:07;3.55;;;2.92;;
21665;SDS011;10994;45.486;9.190;2022-09-01T02:58:40;3.45;;;3.17;;
21665;SDS011;10994;45.486;9.190;2022-09-01T03:03:48;3.67;;;3.33;;
21665;SDS011;10994;45.486;9.190;2022-09-01T03:06:15;4.55;;;3.20;;
21665;SDS011;10994;45.486;9.190;2022-09-01T03:08:44;3.72;;;3.42;;
21665;SDS011;10994;45.486;9.190;2022-09-01T03:11:10;4.15;;;3.75;;
21665;SDS011;10994;45.486;9.190;2022-09-01T03:13:37;5.45;;;4.22;;
21665;SDS011;10994;45.486;9.190;2022-09-01T03:16:05;4.13;;;3.65;;
21665;SDS011;10994;45.486;9.190;2022-09-01T03:18:32;3.67;;;3.38;;
21665;SDS011;10994;45.486;9.190;2022-09-01T03:20:58;4.53;;;3.80;;
21665;SDS011;10994;45.486;9.190;2022-09-01T03:23:27;3.92;;;3.60;;
21665;SDS011;10994;45.486;9.190;2022-09-01T03:25:55;5.43;;;4.93;;
21665;SDS011;10994;45.486;9.190;2022-09-01T03:28:22;6.82;;;5.72;;
21665;SDS011;10994;45.486;9.190;2022-09-01T03:30:49;5.95;;;5.43;;
21665;SDS011;10994;45.486;9.190;2022-09-01T03:33:17;6.60;;;6.00;;
21665;SDS011;10994;45.486;9.190;2022-09-01T03:35:45;6.00;;;5.50;;
21665;SDS011;10994;45.486;9.190;2022-09-01T03:38:12;6.47;;;5.75;;
21665;SDS011;10994;45.486;9.190;2022-09-01T03:40:46;6.22;;;5.28;;
21665;SDS011;10994;45.486;9.190;2022-09-01T03:43:14;6.53;;;5.93;;
21665;SDS011;10994;45.486;9.190;2022-09-01T03:45:41;6.60;;;5.70;;
21665;SDS011;10994;45.486;9.190;2022-09-01T03:48:07;6.70;;;6.07;;
21665;SDS011;10994;45.486;9.190;2022-09-01T03:50:35;7.55;;;6.85;;
21665;SDS011;10994;45.486;9.190;2022-09-01T03:53:09;8.73;;;7.10;;
21665;SDS011;10994;45.486;9.190;2022-09-01T03:55:35;9.73;;;7.82;;
21665;SDS011;10994;45.486;9.190;2022-09-01T03:58:05;8.93;;;7.93;;
21665;SDS011;10994;45.486;9.190;2022-09-01T04:00:34;10.02;;;8.80;;
21665;SDS011;10994;45.486;9.190;2022-09-01T04:03:03;9.77;;;8.57;;
21665;SDS011;10994;45.486;9.190;2022-09-01T04:05:32;8.88;;;8.00;;
21665;SDS011;10994;45.486;9.190;2022-09-01T04:08:01;10.70;;;8.88;;
21665;SDS011;10994;45.486;9.190;2022-09-01T04:10:30;8.35;;;7.63;;
21665;SDS011;10994;45.486;9.190;2022-09-01T04:13:01;12.38;;;9.10;;
21665;SDS011;10994;45.486;9.190;2022-09-01T04:15:28;8.13;;;7.43;;
21665;SDS011;10994;45.486;9.190;2022-09-01T04:17:54;8.23;;;7.53;;
21665;SDS011;10994;45.486;9.190;2022-09-01T04:20:55;9.45;;;8.40;;
21665;SDS011;10994;45.486;9.190;2022-09-01T04:23:27;9.52;;;8.57;;
21665;SDS011;10994;45.486;9.190;2022-09-01T04:26:00;8.70;;;7.80;;
21665;SDS011;10994;45.486;9.190;2022-09-01T04:28:35;9.23;;;8.18;;
21665;SDS011;10994;45.486;9.190;2022-09-01T04:31:04;9.32;;;8.25;;
21665;SDS011;10994;45.486;9.190;2022-09-01T04:33:37;9.18;;;8.27;;
21665;SDS011;10994;45.486;9.190;2022-09-01T04:36:12;8.40;;;7.60;;
21665;SDS011;10994;45.486;9.190;2022-09-01T04:38:44;9.68;;;8.23;;
21665;SDS011;10994;45.486;9.190;2022-09-01T04:41:11;8.30;;;7.50;;
21665;SDS011;10994;45.486;9.190;2022-09-01T04:43:45;8.55;;;7.65;;
21665;SDS011;10994;45.486;9.190;2022-09-01T04:46:14;9.25;;;8.30;;
21665;SDS011;10994;45.486;9.190;2022-09-01T04:48:41;8.25;;;7.45;;
21665;SDS011;10994;45.486;9.190;2022-09-01T04:51:10;8.63;;;7.72;;
21665;SDS011;10994;45.486;9.190;2022-09-01T04:53:49;8.55;;;7.18;;
21665;SDS011;10994;45.486;9.190;2022-09-01T04:56:16;8.23;;;7.20;;
21665;SDS011;10994;45.486;9.190;2022-09-01T04:58:45;8.32;;;7.53;;
21665;SDS011;10994;45.486;9.190;2022-09-01T05:01:25;10.07;;;7.53;;
21665;SDS011;10994;45.486;9.190;2022-09-01T05:03:52;9.35;;;8.25;;
21665;SDS011;10994;45.486;9.190;2022-09-01T05:06:35;8.95;;;8.15;;
21665;SDS011;10994;45.486;9.190;2022-09-01T05:09:04;9.15;;;7.95;;
21665;SDS011;10994;45.486;9.190;2022-09-01T05:11:45;8.43;;;7.50;;
21665;SDS011;10994;45.486;9.190;2022-09-01T05:14:28;8.95;;;7.85;;
21665;SDS011;10994;45.486;9.190;2022-09-01T05:16:55;11.52;;;8.70;;
21665;SDS011;10994;45.486;9.190;2022-09-01T05:19:23;7.97;;;7.28;;
21665;SDS011;10994;45.486;9.190;2022-09-01T05:21:53;9.48;;;7.45;;
21665;SDS011;10994;45.486;9.190;2022-09-01T05:24:22;8.60;;;7.60;;
21665;SDS011;10994;45.486;9.190;2022-09-01T05:26:53;9.10;;;8.05;;
21665;SDS011;10994;45.486;9.190;2022-09-01T05:29:19;8.90;;;6.95;;
21665;SDS011;10994;45.486;9.190;2022-09-01T05:31:47;7.60;;;6.90;;
21665;SDS011;10994;45.486;9.190;2022-09-01T05:34:14;9.85;;;6.43;;
21665;SDS011;10994;45.486;9.190;2022-09-01T05:36:44;7.85;;;6.28;;
21665;SDS011;10994;45.486;9.190;2022-09-01T05:39:14;6.13;;;5.53;;
21665;SDS011;10994;45.486;9.190;2022-09-01T05:41:40;6.28;;;5.18;;
21665;SDS011;10994;45.486;9.190;2022-09-01T05:44:07;5.05;;;4.55;;
21665;SDS011;10994;45.486;9.190;2022-09-01T05:46:35;6.20;;;5.20;;
21665;SDS011;10994;45.486;9.190;2022-09-01T05:49:03;5.68;;;4.20;;
21665;SDS011;10994;45.486;9.190;2022-09-01T05:51:32;4.18;;;3.65;;
21665;SDS011;10994;45.486;9.190;2022-09-01T05:54:00;5.93;;;4.00;;
21665;SDS011;10994;45.486;9.190;2022-09-01T05:56:29;3.92;;;3.60;;
21665;SDS011;10994;45.486;9.190;2022-09-01T05:58:55;4.07;;;3.40;;
21665;SDS011;10994;45.486;9.190;2022-09-01T06:01:25;5.63;;;3.63;;
21665;SDS011;10994;45.486;9.190;2022-09-01T06:03:53;5.65;;;4.32;;
21665;SDS011;10994;45.486;9.190;2022-09-01T06:06:25;4.03;;;3.05;;
21665;SDS011;10994;45.486;9.190;2022-09-01T06:08:52;3.33;;;3.00;;
21665;SDS011;10994;45.486;9.190;2022-09-01T06:11:24;3.03;;;2.83;;
21665;SDS011;10994;45.486;9.190;2022-09-01T06:13:51;5.32;;;2.75;;
21665;SDS011;10994;45.486;9.190;2022-09-01T06:16:21;4.63;;;3.72;;
21665;SDS011;10994;45.486;9.190;2022-09-01T06:18:49;4.22;;;3.42;;
21665;SDS011;10994;45.486;9.190;2022-09-01T06:21:19;3.00;;;2.50;;
21665;SDS011;10994;45.486;9.190;2022-09-01T06:23:46;5.03;;;2.67;;
21665;SDS011;10994;45.486;9.190;2022-09-01T06:26:39;3.55;;;2.90;;
21665;SDS011;10994;45.486;9.190;2022-09-01T06:29:07;2.72;;;2.33;;
21665;SDS011;10994;45.486;9.190;2022-09-01T06:31:41;4.18;;;2.55;;
21665;SDS011;10994;45.486;9.190;2022-09-01T06:34:10;5.40;;;3.38;;
21665;SDS011;10994;45.486;9.190;2022-09-01T06:36:38;4.80;;;3.08;;
21665;SDS011;10994;45.486;9.190;2022-09-01T06:39:06;4.88;;;2.65;;
21665;SDS011;10994;45.486;9.190;2022-09-01T06:41:33;5.32;;;3.10;;
21665;SDS011;10994;45.486;9.190;2022-09-01T06:44:05;4.50;;;2.80;;
21665;SDS011;10994;45.486;9.190;2022-09-01T06:46:32;4.35;;;2.78;;
21665;SDS011;10994;45.486;9.190;2022-09-01T06:49:00;6.45;;;2.70;;
21665;SDS011;10994;45.486;9.190;2022-09-01T06:51:26;3.30;;;3.00;;
21665;SDS011;10994;45.486;9.190;2022-09-01T06:53:55;5.50;;;3.80;;
21665;SDS011;10994;45.486;9.190;2022-09-01T06:56:31;6.82;;;3.10;;
21665;SDS011;10994;45.486;9.190;2022-09-01T06:58:59;7.28;;;5.30;;
21665;SDS011;10994;45.486;9.190;2022-09-01T07:01:30;4.50;;;3.90;;
21665;SDS011;10994;45.486;9.190;2022-09-01T07:03:57;4.63;;;2.80;;
21665;SDS011;10994;45.486;9.190;2022-09-01T07:06:51;4.18;;;3.03;;
21665;SDS011;10994;45.486;9.190;2022-09-01T07:09:43;5.78;;;2.80;;
21665;SDS011;10994;45.486;9.190;2022-09-01T07:12:21;3.38;;;2.60;;
21665;SDS011;10994;45.486;9.190;2022-09-01T07:14:47;3.08;;;2.55;;
21665;SDS011;10994;45.486;9.190;2022-09-01T07:17:13;6.95;;;3.45;;
21665;SDS011;10994;45.486;9.190;2022-09-01T07:19:40;5.28;;;2.80;;
21665;SDS011;10994;45.486;9.190;2022-09-01T07:22:07;5.47;;;3.28;;
21665;SDS011;10994;45.486;9.190;2022-09-01T07:24:36;5.25;;;3.55;;
21665;SDS011;10994;45.486;9.190;2022-09-01T07:27:25;4.03;;;2.60;;
21665;SDS011;10994;45.486;9.190;2022-09-01T07:29:53;7.00;;;3.75;;
21665;SDS011;10994;45.486;9.190;2022-09-01T07:32:21;4.03;;;3.20;;
21665;SDS011;10994;45.486;9.190;2022-09-01T07:34:47;8.95;;;3.78;;
21665;SDS011;10994;45.486;9.190;2022-09-01T07:37:14;4.80;;;3.42;;
21665;SDS011;10994;45.486;9.190;2022-09-01T07:39:42;3.78;;;3.47;;
21665;SDS011;10994;45.486;9.190;2022-09-01T07:42:43;4.60;;;3.40;;
21665;SDS011;10994;45.486;9.190;2022-09-01T07:45:46;5.70;;;4.53;;
21665;SDS011;10994;45.486;9.190;2022-09-01T07:48:16;6.25;;;4.40;;
21665;SDS011;10994;45.486;9.190;2022-09-01T07:50:48;5.43;;;4.15;;
21665;SDS011;10994;45.486;9.190;2022-09-01T07:53:21;4.82;;;3.60;;
21665;SDS011;10994;45.486;9.190;2022-09-01T07:55:49;5.03;;;3.72;;
21665;SDS011;10994;45.486;9.190;2022-09-01T07:58:21;6.72;;;3.13;;
21665;SDS011;10994;45.486;9.190;2022-09-01T08:00:52;4.22;;;3.63;;
21665;SDS011;10994;45.486;9.190;2022-09-01T08:03:20;5.10;;;3.70;;
21665;SDS011;10994;45.486;9.190;2022-09-01T08:05:49;3.88;;;3.50;;
21665;SDS011;10994;45.486;9.190;2022-09-01T08:08:20;5.68;;;4.18;;
21665;SDS011;10994;45.486;9.190;2022-09-01T08:10:46;4.95;;;4.18;;
21665;SDS011;10994;45.486;9.190;2022-09-01T08:13:13;4.60;;;4.20;;
21665;SDS011;10994;45.486;9.190;2022-09-01T08:15:39;7.70;;;5.28;;
21665;SDS011;10994;45.486;9.190;2022-09-01T08:18:06;7.13;;;5.13;;
21665;SDS011;10994;45.486;9.190;2022-09-01T08:20:33;5.00;;;4.50;;
21665;SDS011;10994;45.486;9.190;2022-09-01T08:23:22;5.95;;;3.70;;
21665;SDS011;10994;45.486;9.190;2022-09-01T08:25:52;5.10;;;4.00;;
21665;SDS011;10994;45.486;9.190;2022-09-01T08:28:18;3.97;;;3.58;;
21665;SDS011;10994;45.486;9.190;2022-09-01T08:30:45;9.52;;;4.57;;
21665;SDS011;10994;45.486;9.190;2022-09-01T08:33:13;7.22;;;5.32;;
21665;SDS011;10994;45.486;9.190;2022-09-01T08:35:44;6.45;;;4.68;;
21665;SDS011;10994;45.486;9.190;2022-09-01T08:38:11;5.53;;;4.35;;
21665;SDS011;10994;45.486;9.190;2022-09-01T08:40:38;5.75;;;5.22;;
21665;SDS011;10994;45.486;9.190;2022-09-01T08:45:53;8.98;;;5.10;;
21665;SDS011;10994;45.486;9.190;2022-09-01T08:48:26;8.52;;;5.78;;
21665;SDS011;10994;45.486;9.190;2022-09-01T08:51:14;6.57;;;5.60;;
21665;SDS011;10994;45.486;9.190;2022-09-01T08:54:03;8.38;;;5.57;;
21665;SDS011;10994;45.486;9.190;2022-09-01T08:56:37;6.03;;;5.35;;
21665;SDS011;10994;45.486;9.190;2022-09-01T08:59:05;9.32;;;5.57;;
21665;SDS011;10994;45.486;9.190;2022-09-01T09:04:51;8.40;;;5.82;;
21665;SDS011;10994;45.486;9.190;2022-09-01T09:10:31;7.75;;;5.97;;
21665;SDS011;10994;45.486;9.190;2022-09-01T09:13:23;8.40;;;5.68;;
21665;SDS011;10994;45.486;9.190;2022-09-01T09:16:17;7.53;;;6.38;;
21665;SDS011;10994;45.486;9.190;2022-09-01T09:19:00;7.38;;;6.53;;
21665;SDS011;10994;45.486;9.190;2022-09-01T09:21:36;9.93;;;7.63;;
21665;SDS011;10994;45.486;9.190;2022-09-01T09:26:36;7.68;;;6.60;;
21665;SDS011;10994;45.486;9.190;2022-09-01T09:29:05;7.75;;;6.35;;
21665;SDS011;10994;45.486;9.190;2022-09-01T09:33:57;8.57;;;7.07;;
21665;SDS011;10994;45.486;9.190;2022-09-01T09:36:28;7.95;;;6.90;;
21665;SDS011;10994;45.486;9.190;2022-09-01T09:39:10;10.52;;;6.45;;
21665;SDS011;10994;45.486;9.190;2022-09-01T09:41:40;10.68;;;6.43;;
21665;SDS011;10994;45.486;9.190;2022-09-01T09:46:49;8.80;;;6.25;;
21665;SDS011;10994;45.486;9.190;2022-09-01T09:51:55;7.25;;;6.55;;
21665;SDS011;10994;45.486;9.190;2022-09-01T09:55:02;7.50;;;6.80;;
21665;SDS011;10994;45.486;9.190;2022-09-01T09:57:41;11.05;;;6.75;;
21665;SDS011;10994;45.486;9.190;2022-09-01T10:00:22;9.82;;;6.38;;
21665;SDS011;10994;45.486;9.190;2022-09-01T10:05:36;6.35;;;5.75;;
21665;SDS011;10994;45.486;9.190;2022-09-01T10:08:02;6.78;;;6.07;;
21665;SDS011;10994;45.486;9.190;2022-09-01T10:13:21;7.18;;;6.40;;
21665;SDS011;10994;45.486;9.190;2022-09-01T10:15:49;8.02;;;7.20;;
21665;SDS011;10994;45.486;9.190;2022-09-01T10:18:18;8.65;;;7.68;;
21665;SDS011;10994;45.486;9.190;2022-09-01T10:21:08;7.43;;;6.72;;
21665;SDS011;10994;45.486;9.190;2022-09-01T10:23:36;10.25;;;7.18;;
21665;SDS011;10994;45.486;9.190;2022-09-01T10:26:08;7.60;;;5.97;;
21665;SDS011;10994;45.486;9.190;2022-09-01T10:31:25;6.20;;;5.60;;
21665;SDS011;10994;45.486;9.190;2022-09-01T10:33:52;6.88;;;5.75;;
21665;SDS011;10994;45.486;9.190;2022-09-01T10:36:18;10.00;;;6.90;;
21665;SDS011;10994;45.486;9.190;2022-09-01T10:38:46;7.15;;;6.28;;
21665;SDS011;10994;45.486;9.190;2022-09-01T10:41:42;7.53;;;5.60;;
21665;SDS011;10994;45.486;9.190;2022-09-01T10:44:20;10.75;;;6.40;;
21665;SDS011;10994;45.486;9.190;2022-09-01T10:46:56;7.70;;;7.00;;
21665;SDS011;10994;45.486;9.190;2022-09-01T10:51:53;8.75;;;7.30;;
21665;SDS011;10994;45.486;9.190;2022-09-01T10:54:55;12.35;;;7.70;;
21665;SDS011;10994;45.486;9.190;2022-09-01T11:08:21;10.70;;;8.07;;
21665;SDS011;10994;45.486;9.190;2022-09-01T11:10:55;9.18;;;8.27;;
21665;SDS011;10994;45.486;9.190;2022-09-01T11:13:35;8.32;;;7.53;;
21665;SDS011;10994;45.486;9.190;2022-09-01T11:28:05;13.13;;;7.18;;
21665;SDS011;10994;45.486;9.190;2022-09-01T11:30:57;9.10;;;7.78;;
21665;SDS011;10994;45.486;9.190;2022-09-01T11:35:58;8.30;;;7.10;;
21665;SDS011;10994;45.486;9.190;2022-09-01T11:41:25;7.57;;;6.88;;
21665;SDS011;10994;45.486;9.190;2022-09-01T11:43:58;7.72;;;6.85;;
21665;SDS011;10994;45.486;9.190;2022-09-01T11:46:32;7.80;;;6.75;;
21665;SDS011;10994;45.486;9.190;2022-09-01T11:49:05;7.28;;;6.57;;
21665;SDS011;10994;45.486;9.190;2022-09-01T11:51:37;6.80;;;6.10;;
21665;SDS011;10994;45.486;9.190;2022-09-01T11:54:08;6.32;;;5.72;;
21665;SDS011;10994;45.486;9.190;2022-09-01T11:56:35;7.40;;;6.60;;
21665;SDS011;10994;45.486;9.190;2022-09-01T11:59:00;6.63;;;5.85;;
21665;SDS011;10994;45.486;9.190;2022-09-01T12:04:19;8.43;;;6.28;;
21665;SDS011;10994;45.486;9.190;2022-09-01T12:06:50;6.82;;;5.80;;
21665;SDS011;10994;45.486;9.190;2022-09-01T12:09:19;6.70;;;6.07;;
21665;SDS011;10994;45.486;9.190;2022-09-01T12:11:45;6.20;;;5.60;;
21665;SDS011;10994;45.486;9.190;2022-09-01T12:14:17;6.00;;;5.50;;
21665;SDS011;10994;45.486;9.190;2022-09-01T12:16:47;6.25;;;5.35;;
21665;SDS011;10994;45.486;9.190;2022-09-01T12:19:32;6.90;;;6.20;;
21665;SDS011;10994;45.486;9.190;2022-09-01T12:22:13;6.22;;;5.45;;
21665;SDS011;10994;45.486;9.190;2022-09-01T12:24:45;6.63;;;6.03;;
21665;SDS011;10994;45.486;9.190;2022-09-01T12:27:13;6.18;;;5.55;;
21665;SDS011;10994;45.486;9.190;2022-09-01T12:29:40;5.85;;;5.28;;
21665;SDS011;10994;45.486;9.190;2022-09-01T12:32:06;5.40;;;4.45;;
21665;SDS011;10994;45.486;9.190;2022-09-01T12:37:23;5.93;;;4.88;;
21665;SDS011;10994;45.486;9.190;2022-09-01T12:39:51;5.05;;;4.20;;
21665;SDS011;10994;45.486;9.190;2022-09-01T12:42:31;5.45;;;4.85;;
21665;SDS011;10994;45.486;9.190;2022-09-01T12:45:05;5.18;;;4.05;;
21665;SDS011;10994;45.486;9.190;2022-09-01T12:47:56;4.15;;;3.72;;
21665;SDS011;10994;45.486;9.190;2022-09-01T12:52:52;4.88;;;4.47;;
21665;SDS011;10994;45.486;9.190;2022-09-01T12:55:21;4.50;;;4.07;;
21665;SDS011;10994;45.486;9.190;2022-09-01T12:57:50;4.43;;;3.90;;
21665;SDS011;10994;45.486;9.190;2022-09-01T13:00:22;4.72;;;4.32;;
21665;SDS011;10994;45.486;9.190;2022-09-01T13:05:31;4.35;;;3.78;;
21665;SDS011;10994;45.486;9.190;2022-09-01T13:07:59;5.53;;;3.92;;
21665;SDS011;10994;45.486;9.190;2022-09-01T13:10:33;4.43;;;3.53;;
21665;SDS011;10994;45.486;9.190;2022-09-01T13:13:07;6.38;;;3.97;;
21665;SDS011;10994;45.486;9.190;2022-09-01T13:15:34;15.38;;;3.78;;
21665;SDS011;10994;45.486;9.190;2022-09-01T13:18:01;5.28;;;2.90;;
21665;SDS011;10994;45.486;9.190;2022-09-01T13:20:27;3.40;;;2.90;;
21665;SDS011;10994;45.486;9.190;2022-09-01T13:22:53;5.55;;;3.47;;
21665;SDS011;10994;45.486;9.190;2022-09-01T13:25:20;3.13;;;2.60;;
21665;SDS011;10994;45.486;9.190;2022-09-01T13:27:47;4.38;;;2.63;;
21665;SDS011;10994;45.486;9.190;2022-09-01T13:30:14;2.70;;;2.50;;
21665;SDS011;10994;45.486;9.190;2022-09-01T13:32:45;5.00;;;2.97;;
21665;SDS011;10994;45.486;9.190;2022-09-01T13:35:12;5.75;;;2.63;;
21665;SDS011;10994;45.486;9.190;2022-09-01T13:37:40;3.75;;;2.55;;
21665;SDS011;10994;45.486;9.190;2022-09-01T13:40:06;2.92;;;2.72;;
21665;SDS011;10994;45.486;9.190;2022-09-01T13:42:40;3.28;;;2.97;;
21665;SDS011;10994;45.486;9.190;2022-09-01T13:45:06;3.40;;;3.08;;
21665;SDS011;10994;45.486;9.190;2022-09-01T13:47:34;4.40;;;3.60;;
21665;SDS011;10994;45.486;9.190;2022-09-01T13:50:00;3.60;;;3.30;;
21665;SDS011;10994;45.486;9.190;2022-09-01T13:52:25;3.70;;;3.40;;
21665;SDS011;10994;45.486;9.190;2022-09-01T13:54:51;3.47;;;3.17;;
21665;SDS011;10994;45.486;9.190;2022-09-01T13:57:17;3.40;;;3.10;;
21665;SDS011;10994;45.486;9.190;2022-09-01T13:59:43;3.80;;;3.35;;
21665;SDS011;10994;45.486;9.190;2022-09-01T14:02:12;3.70;;;3.17;;
21665;SDS011;10994;45.486;9.190;2022-09-01T14:04:38;7.13;;;2.95;;
21665;SDS011;10994;45.486;9.190;2022-09-01T14:07:04;3.95;;;2.97;;
21665;SDS011;10994;45.486;9.190;2022-09-01T14:09:30;6.55;;;3.22;;
21665;SDS011;10994;45.486;9.190;2022-09-01T14:11:56;7.45;;;3.03;;
21665;SDS011;10994;45.486;9.190;2022-09-01T14:14:22;5.03;;;3.60;;
21665;SDS011;10994;45.486;9.190;2022-09-01T14:16:47;5.50;;;2.70;;
21665;SDS011;10994;45.486;9.190;2022-09-01T14:19:13;3.90;;;2.50;;
21665;SDS011;10994;45.486;9.190;2022-09-01T14:21:40;4.28;;;3.15;;
21665;SDS011;10994;45.486;9.190;2022-09-01T14:24:05;2.83;;;2.20;;
21665;SDS011;10994;45.486;9.190;2022-09-01T14:26:32;2.63;;;2.38;;
21665;SDS011;10994;45.486;9.190;2022-09-01T14:28:58;2.70;;;2.15;;
21665;SDS011;10994;45.486;9.190;2022-09-01T14:31:26;2.83;;;2.42;;
21665;SDS011;10994;45.486;9.190;2022-09-01T14:33:53;4.57;;;2.50;;
21665;SDS011;10994;45.486;9.190;2022-09-01T14:36:20;2.30;;;2.10;;
21665;SDS011;10994;45.486;9.190;2022-09-01T14:38:47;2.22;;;2.00;;
21665;SDS011;10994;45.486;9.190;2022-09-01T14:41:14;3.78;;;2.00;;
21665;SDS011;10994;45.486;9.190;2022-09-01T14:43:46;1.95;;;1.85;;
21665;SDS011;10994;45.486;9.190;2022-09-01T14:46:12;2.47;;;1.65;;
21665;SDS011;10994;45.486;9.190;2022-09-01T14:48:38;3.10;;;1.90;;
21665;SDS011;10994;45.486;9.190;2022-09-01T14:51:04;2.33;;;2.13;;
21665;SDS011;10994;45.486;9.190;2022-09-01T14:53:31;3.13;;;2.03;;
21665;SDS011;10994;45.486;9.190;2022-09-01T14:55:58;3.10;;;1.85;;
21665;SDS011;10994;45.486;9.190;2022-09-01T14:58:25;3.97;;;1.70;;
21665;SDS011;10994;45.486;9.190;2022-09-01T15:00:53;3.05;;;1.45;;
21665;SDS011;10994;45.486;9.190;2022-09-01T15:03:20;3.03;;;1.58;;
21665;SDS011;10994;45.486;9.190;2022-09-01T15:05:47;1.88;;;1.67;;
21665;SDS011;10994;45.486;9.190;2022-09-01T15:08:14;1.70;;;1.50;;
21665;SDS011;10994;45.486;9.190;2022-09-01T15:10:40;1.48;;;1.38;;
21665;SDS011;10994;45.486;9.190;2022-09-01T15:13:06;1.63;;;1.08;;
21665;SDS011;10994;45.486;9.190;2022-09-01T15:15:32;1.08;;;0.90;;
21665;SDS011;10994;45.486;9.190;2022-09-01T15:17:59;4.30;;;1.40;;
21665;SDS011;10994;45.486;9.190;2022-09-01T15:20:25;2.30;;;1.50;;
21665;SDS011;10994;45.486;9.190;2022-09-01T15:23:14;1.52;;;1.30;;
21665;SDS011;10994;45.486;9.190;2022-09-01T15:25:41;1.10;;;1.00;;
21665;SDS011;10994;45.486;9.190;2022-09-01T15:28:07;2.05;;;0.90;;
21665;SDS011;10994;45.486;9.190;2022-09-01T15:30:33;2.20;;;1.00;;
21665;SDS011;10994;45.486;9.190;2022-09-01T15:33:00;2.45;;;1.20;;
21665;SDS011;10994;45.486;9.190;2022-09-01T15:35:27;1.80;;;1.08;;
21665;SDS011;10994;45.486;9.190;2022-09-01T15:37:53;1.58;;;1.30;;
21665;SDS011;10994;45.486;9.190;2022-09-01T15:40:21;2.08;;;1.27;;
21665;SDS011;10994;45.486;9.190;2022-09-01T15:42:48;1.58;;;1.10;;
21665;SDS011;10994;45.486;9.190;2022-09-01T15:45:16;1.02;;;1.00;;
21665;SDS011;10994;45.486;9.190;2022-09-01T15:47:44;1.20;;;1.10;;
21665;SDS011;10994;45.486;9.190;2022-09-01T15:50:13;1.00;;;1.00;;
21665;SDS011;10994;45.486;9.190;2022-09-01T15:52:52;1.38;;;1.13;;
21665;SDS011;10994;45.486;9.190;2022-09-01T15:55:30;1.10;;;1.00;;
21665;SDS011;10994;45.486;9.190;2022-09-01T15:58:04;1.10;;;1.00;;
21665;SDS011;10994;45.486;9.190;2022-09-01T16:00:31;2.30;;;0.90;;
21665;SDS011;10994;45.486;9.190;2022-09-01T16:02:57;1.52;;;1.42;;
21665;SDS011;10994;45.486;9.190;2022-09-01T16:05:26;1.30;;;1.20;;
21665;SDS011;10994;45.486;9.190;2022-09-01T16:07:53;1.10;;;0.95;;
21665;SDS011;10994;45.486;9.190;2022-09-01T16:10:19;2.20;;;0.90;;
21665;SDS011;10994;45.486;9.190;2022-09-01T16:12:45;3.17;;;1.10;;
21665;SDS011;10994;45.486;9.190;2022-09-01T16:15:16;2.20;;;1.30;;
21665;SDS011;10994;45.486;9.190;2022-09-01T16:17:54;1.92;;;1.40;;
21665;SDS011;10994;45.486;9.190;2022-09-01T16:20:35;3.58;;;1.77;;
21665;SDS011;10994;45.486;9.190;2022-09-01T16:25:50;2.17;;;1.20;;
21665;SDS011;10994;45.486;9.190;2022-09-01T16:28:31;2.88;;;1.20;;
21665;SDS011;10994;45.486;9.190;2022-09-01T16:31:11;2.95;;;1.30;;
21665;SDS011;10994;45.486;9.190;2022-09-01T16:33:46;1.65;;;1.10;;
21665;SDS011;10994;45.486;9.190;2022-09-01T16:46:52;2.55;;;1.23;;